Northfield, Texas
Current Conditions -  °F | °C
As of 9:53 PM on Friday 28 Nov 2014 (Local Time) from KCDS Reporting Station
Clear Clear  
Wind Chill: 61°   Ceiling: Unl
Heat Index: 61°   Visibility: 10mi
Dew Point: 27°   Wind: 15mph
Humidity: 27%   Direction: 210°SSW
Pressure: 29.84"   Gusts: NA
Location:  34.4383°N, 100.197°W
Report Text: KCDS 290353Z AUTO 21013KT 10SM CLR 16/M03 A2984 RMK AO2 SLP093 T01611028
Loading
Personal Weather Stations






























Interactive Weather Map New forecast layout! Learn more

10-Day Weather Forecast

Advertisements
Track Severe Weather on mobile